Flight Track Log - Related Links

Times and Time Zones

All times are in EDT time to prevent confusion due to time zone crossing. See the LXJ342 flight status page for this flight to view local times or setup timezone preferences in your user account.

Time Position Orientation Groundspeed Altitude Reporting Facility
EDT Latitude Longitude Course Direction KTS MPH feet Rate Location/Type
Mon 05:12:29 PM 38.1889 -92.5400 North 231 266 6,500  Level Kansas City Center
Mon 05:13:31 PM 38.2778 -92.5839 339° North 283 326 9,600 3,194 Climbing Kansas City Center
Mon 05:14:33 PM 38.3442 -92.6264 333° Northwest 273 314 13,100 3,097 Climbing Kansas City Center
Mon 05:15:35 PM 38.4056 -92.6803 325° Northwest 268 308 16,000 2,758 Climbing Kansas City Center
Mon 05:16:37 PM 38.4475 -92.7706 301° West 291 335 18,800 2,661 Climbing Kansas City Center
Mon 05:17:39 PM 38.4658 -92.8822 282° West 321 369 21,500 2,226 Climbing Kansas City Center
Mon 05:18:41 PM 38.4611 -93.0072 267° West 347 399 23,400 2,032 Climbing Kansas City Center
Mon 05:19:43 PM 38.4558 -93.1781 268° West 396 456 25,700 1,258 Climbing Kansas City Center
Mon 05:20:45 PM 38.4500 -93.3292 267° West 417 480 26,000 919 Climbing Kansas City Center
Mon 05:21:47 PM 38.4678 -93.4892 278° West 449 517 27,600 2,129 Climbing Kansas City Center
Mon 05:22:49 PM 38.4783 -93.6411 275° West 435 501 30,400 2,081 Climbing Kansas City Center
Mon 05:23:51 PM 38.4900 -93.7889 276° West 424 488 31,900 1,548 Climbing Kansas City Center
Mon 05:24:53 PM 38.5031 -93.9603 276° West 430 495 33,600 1,500 Climbing Kansas City Center
Mon 05:25:55 PM 38.5133 -94.1067 275° West 432 497 35,000 1,452 Climbing Kansas City Center
Mon 05:26:57 PM 38.5256 -94.2739 275° West 426 490 36,600 1,355 Climbing Kansas City Center
Mon 05:27:59 PM 38.5353 -94.4128 275° West 414 476 37,800 871 Climbing Kansas City Center
Mon 05:29:01 PM 38.5464 -94.5767 275° West 413 475 38,400 629 Climbing Kansas City Center
Mon 05:30:03 PM 38.5569 -94.7214 275° West 422 486 39,100 774 Climbing Kansas City Center
Mon 05:31:05 PM 38.5656 -94.8636 274° West 421 484 40,000 435 Climbing Kansas City Center
Mon 05:32:07 PM 38.5772 -95.0306 275° West 420 483 40,000  Level Kansas City Center
Mon 05:33:09 PM 38.5867 -95.1811 275° West 436 502 40,000  Level Kansas City Center
Mon 05:34:11 PM 38.5986 -95.3586 275° West 445 512 40,000  Level Kansas City Center
Mon 05:35:13 PM 38.6081 -95.5136 275° West 452 520 40,000  Level Kansas City Center
Mon 05:36:15 PM 38.6194 -95.6950 275° West 456 525 40,000  Level Kansas City Center
Mon 05:37:17 PM 38.6292 -95.8514 275° West 460 529 40,000  Level Kansas City Center
Mon 05:38:19 PM 38.6378 -96.0078 274° West 460 529 40,000  Level Kansas City Center
Mon 05:39:21 PM 38.6472 -96.1878 274° West 454 522 40,000  Level Kansas City Center
Mon 05:40:24 PM 38.6556 -96.3433 274° West 457 526 40,000  Level Kansas City Center
Mon 05:41:26 PM 38.6650 -96.5250 274° West 457 526 40,000  Level Kansas City Center
Mon 05:42:28 PM 38.6728 -96.6819 274° West 461 531 40,000  Level Kansas City Center
Mon 05:43:30 PM 38.6811 -96.8681 273° West 463 533 40,000  Level Kansas City Center
Mon 05:44:32 PM 38.6897 -97.0322 274° West 464 534 40,000  Level Kansas City Center
Mon 05:45:34 PM 38.6972 -97.1953 273° West 462 532 40,000  Level Kansas City Center
Mon 05:46:36 PM 38.7050 -97.3583 274° West 461 531 40,000  Level Kansas City Center
Mon 05:47:38 PM 38.7139 -97.5425 274° West 454 522 40,000  Level Kansas City Center
Mon 05:48:40 PM 38.7197 -97.6975 273° West 452 520 40,000  Level Kansas City Center
Mon 05:49:42 PM 38.7275 -97.8742 273° West 461 531 40,000  Level Kansas City Center
Mon 05:50:44 PM 38.7339 -98.0353 273° West 457 526 40,000  Level Kansas City Center
Mon 05:51:46 PM 38.7403 -98.1942 273° West 451 519 40,000  Level Kansas City Center
Mon 05:52:48 PM 38.7458 -98.3542 273° West 452 520 40,000  Level Kansas City Center
Mon 05:53:50 PM 38.7511 -98.5156 272° West 454 522 40,000  Level Kansas City Center
Mon 05:54:52 PM 38.7583 -98.7128 273° West 454 522 40,000  Level Kansas City Center
Mon 05:55:54 PM 38.7639 -98.8692 273° West 454 522 40,000  Level Kansas City Center
Mon 05:56:55 PM 38.7694 -99.0319 273° West 457 526 40,000  Level Kansas City Center
Mon 05:57:57 PM 38.7731 -99.1931 272° West 454 522 40,000  Level Kansas City Center
Mon 05:58:59 PM 38.7783 -99.3533 272° West 454 522 40,000  Level Kansas City Center
Mon 06:00:01 PM 38.7828 -99.5150 272° West 454 522 40,000  Level Kansas City Center
Mon 06:02:12 PM 38.7908 -99.8742 272° West 448 516 40,000  Level Denver Center
Mon 06:03:07 PM 38.7953 -100.0283 272° West 449 517 40,000  Level Kansas City Center
Mon 06:04:15 PM 38.7942 -100.2044 270° West 448 516 40,000  Level Denver Center
Mon 06:05:17 PM 38.7836 -100.3850 266° West 457 526 40,000  Level Denver Center
Mon 06:06:20 PM 38.7742 -100.5369 265° West 453 521 40,000  Level Denver Center
Mon 06:07:21 PM 38.7625 -100.7172 265° West 456 525 40,000  Level Denver Center
Mon 06:08:23 PM 38.7514 -100.8739 265° West 462 532 40,000  Level Denver Center
Mon 06:09:25 PM 38.7417 -101.0294 265° West 461 531 40,000 -49 Level Denver Center
Mon 06:10:26 PM 38.7289 -101.2078 265° West 455 524 39,900 -488 Descending Denver Center
Mon 06:11:28 PM 38.7175 -101.3650 265° West 464 534 39,000 -1,065 Descending Denver Center
Mon 06:12:30 PM 38.7050 -101.5406 265° West 447 514 37,700 -1,355 Descending Denver Center
Mon 06:13:32 PM 38.6939 -101.6906 265° West 445 512 36,200 -1,500 Descending Denver Center
Mon 06:14:34 PM 38.6806 -101.8667 265° West 447 514 34,600 -1,500 Descending Denver Center
Mon 06:15:36 PM 38.6686 -102.0186 264° West 450 518 33,100 -1,268 Descending Denver Center
Mon 06:16:37 PM 38.6550 -102.1956 264° West 450 518 32,000 -489 Descending Denver Center
Mon 06:17:51 PM 38.6431 -102.3436 264° West 442 509 32,000  Level Denver Center
Mon 06:18:53 PM 38.6283 -102.5192 264° West 445 512 32,000  Level Denver Center
Mon 06:19:55 PM 38.6147 -102.6981 264° West 452 520 32,000 -581 Level Denver Center
Mon 06:20:57 PM 38.5983 -102.8811 264° West 453 521 30,800 -1,016 Descending Denver Center
Mon 06:21:59 PM 38.5856 -103.0308 264° West 444 511 29,900 -926 Descending Denver Center
Mon 06:23:13 PM 38.5711 -103.2025 264° West 435 501 28,700 -1,103 Descending Denver Center
Mon 06:24:15 PM 38.5547 -103.3889 264° West 425 489 27,400 -1,113 Descending Denver Center
Mon 06:25:17 PM 38.5869 -103.5139 288° West 388 447 26,400 -968 Descending Denver Center
Mon 06:26:19 PM 38.6561 -103.6039 315° West 372 428 25,400 -1,210 Descending Denver Center
Mon 06:27:21 PM 38.7361 -103.7094 314° West 370 426 23,900 -1,645 Descending Denver Center
Mon 06:28:23 PM 38.8047 -103.7983 315° West 368 423 22,000 -1,951 Descending Denver Center
Mon 06:29:24 PM 38.8797 -103.8967 314° West 351 404 19,900 -1,902 Descending Denver Center
Mon 06:30:26 PM 38.9453 -103.9839 314° West 347 399 18,100 -1,742 Descending Denver Center
Mon 06:31:28 PM 39.0097 -104.0694 314° West 338 389 16,300 -1,016 Descending Denver Center
Mon 06:32:30 PM 39.0431 -104.1806 291° West 320 368 16,000 -145 Descending Denver Center
Mon 06:33:32 PM 39.0728 -104.3081 287° West 331 381 16,000 -581 Level Denver Center
Mon 06:34:34 PM 39.0972 -104.4169 286° West 332 382 14,800 -919 Descending Denver Center
Mon 06:35:36 PM 39.1231 -104.5331 286° West 315 362 14,100 -683 Descending Denver Center
Mon 06:36:37 PM 39.1464 -104.6378 286° West 310 357 13,400 -927 Descending Denver Center
Mon 06:37:39 PM 39.1697 -104.7392 287° West 299 344 12,200 -1,452 Descending Denver Center
Mon 06:38:41 PM 39.2281 -104.8122 316° Northwest 277 319 10,400 -1,065 Descending Denver Center
Mon 06:39:43 PM 39.2919 -104.8672 326° Northwest 274 315 10,000 -290 Descending Denver Center
Mon 06:40:45 PM 39.3597 -104.8894 346° North 261 300 9,800 -980 Descending Denver Center
Mon 06:42:16 PM 39.4667 -104.8500 16° North 223 257 7,500 -1,059 Descending Denver TRACON
Mon 06:43:01 PM 39.4925 -104.8489 North 165 190 7,400 -673 Descending Denver Center
Mon 06:44:03 PM 39.5317 -104.8489 360° North 145 167 6,300 -780 Descending Denver Center
Mon 06:45:04 PM 39.5631 -104.8497 359° North 134 154 5,800 -492 Descending Denver Center
Mon 06:47:00 PM 39.5667 -104.8333 North  Level FlightAware Approximate
Mon 06:54:00 PM 39.5701 -104.8493 North  Level Estimated

Login

Don't have an account? Register now (free) for customized features, flight alerts, and more!